Flight Track Log - Related Links

Times and Time Zones

All times are in EDT time to prevent confusion due to time zone crossing. See the EJA829P flight status page for this flight to view local times or setup timezone preferences in your user account.

Time Position Orientation Groundspeed Altitude Reporting Facility
EDT Latitude Longitude Course Direction KTS MPH feet Rate Location/Type
Sat 02:49:57 PM 39.2744 -106.9286 289° West 267 307 10,600  Level Denver Center
Sat 02:50:59 PM 39.3044 -107.0389 289° West 271 312 13,300 2,323 Climbing Denver Center
Sat 02:52:01 PM 39.3797 -107.0611 347° North 302 348 15,400 1,984 Climbing Denver Center
Sat 02:53:03 PM 39.3792 -106.9681 90° East 309 356 17,400 2,323 Climbing Denver Center
Sat 02:54:05 PM 39.2964 -106.9622 177° South 298 343 20,200 1,588 Climbing Denver Center
Sat 02:55:19 PM 39.1986 -106.9708 184° South 341 392 21,000 353 Climbing Denver Center
Sat 02:56:21 PM 39.0603 -106.9717 180° South 391 450 21,000  Level Denver Center
Sat 02:57:23 PM 38.9547 -106.9697 179° South 394 453 21,000  Level Denver Center
Sat 02:58:25 PM 38.8411 -106.9700 180° South 376 433 21,000  Level Denver Center
Sat 02:59:26 PM 38.7369 -106.9739 182° South 373 429 21,000  Level Denver Center
Sat 03:00:28 PM 38.6253 -106.9661 177° South 394 453 21,000  Level Denver Center
Sat 03:01:30 PM 38.5144 -106.9644 179° South 397 457 21,000  Level Denver Center
Sat 03:02:32 PM 38.4047 -106.9728 183° South 393 452 21,000  Level Denver Center
Sat 03:03:46 PM 38.2733 -106.9817 183° South 393 452 21,000  Level Denver Center
Sat 03:04:48 PM 38.1467 -106.9903 183° South 382 440 21,000  Level Denver Center
Sat 03:05:50 PM 38.0372 -106.9986 183° South 376 433 21,000  Level Denver Center
Sat 03:06:52 PM 37.9369 -107.0078 184° South 377 434 21,000  Level Denver Center
Sat 03:07:53 PM 37.8408 -107.0125 182° South 365 420 21,000  Level Denver Center
Sat 03:08:55 PM 37.7475 -107.0208 184° South 307 353 21,000 -484 Level Denver Center
Sat 03:09:57 PM 37.6658 -107.0303 185° South 304 350 20,000 -1,790 Descending Denver Center
Sat 03:10:59 PM 37.5592 -107.0428 185° South 324 373 17,300 -2,177 Descending Denver Center
Sat 03:12:01 PM 37.4589 -107.0453 181° South 351 404 15,500 -1,742 Descending Denver Center
Sat 03:14:00 PM 37.2947 -107.0497 181° South  Level FlightAware
Sat 03:21:00 PM 37.2833 -107.0500 184° South  Level FlightAware
Sat 03:22:00 PM 37.2863 -107.0560 184° South  Level Estimated
Sat 03:23:00 PM 37.2833 -107.0500 184° South  Level FlightAware
Sat 03:24:00 PM 37.2863 -107.0560 184° South  Level Estimated
Sat 03:25:00 PM 37.2833 -107.0500 184° South  Level FlightAware
Sat 03:26:00 PM 37.2863 -107.0560 184° South  Level Estimated
Sat 03:27:00 PM 37.2833 -107.0500 184° South  Level FlightAware
Sat 03:28:00 PM 37.2863 -107.0560 184° South  Level Estimated
Sat 03:29:00 PM 37.2833 -107.0500 184° South  Level FlightAware

Login

Don't have an account? Register now (free) for customized features, flight alerts, and more!